KCRG

Jacksonville Executive at Craig Airport

Jacksonville, Florida, USA
METAR KCRG 201953Z 11010KT 10SM FEW050 31/25 A3004 RMK AO2 LTG DSNT SW SLP173 T03110250 $
Observed Flight Rules
Aug-20 @ 19:53 UTC (38 minutes ago) Visual Flight Rules
Wind Visibility Clouds
110° at 10 knots 10 miles
  • Few at 5,000' AGL
Temperatures Readings
Current 31°C / 88°F
Dewpoint 25°C / 77°F
Humidity 70%
Altimeter 30.04" Hg
Pressure 1017.3 hPa
Elevation 13
METAR KCRG 201953Z 11010KT 10SM FEW050 31/25 A3004 RMK AO2 LTG DSNT SW SLP173 T03110250 $
Observed Flight Rules
Aug-20 @ 19:53 UTC
(38 minutes ago)
VFR
Wind Visibility
110° at 10 knots 10 miles
Clouds
  • Few at 5,000' AGL
Temperature Dewpoint
31°C / 88°F 25°C / 77°F
Humidity Altimeter Pressure
70% 30.04" Hg 1017.3 hPa